NCAR-RAP Real-Time Weather Data

Output produced by METARs form (10 April 2020  06:51 UTC)
found at http://weather.rap.ucar.edu/surface/
 
KRHI 100631Z AUTO 32008G14KT 280V350 10SM OVC029 M01/M07 A2989 RMK AO2 T10061067
KRHI 100553Z AUTO 29007KT 270V330 10SM BKN031 BKN038 OVC055 M01/M06 A2988 RMK AO2 SLP135 T10061061 10006 21011 400331022 53004
KRHI 100515Z AUTO 31007KT 10SM SCT028 BKN034 BKN060 M01/M07 A2988 RMK AO2 T10111067
KRHI 100453Z AUTO 31008G19KT 10SM BKN029 M01/M07 A2987 RMK AO2 SLP133 T10061067
KRHI 100439Z AUTO 31010G23KT 10SM OVC029 M01/M07 A2987 RMK AO2 T10061067
KRHI 100353Z AUTO 30010G18KT 10SM OVC034 M01/M07 A2987 RMK AO2 SLP131 T10061067
KRHI 100253Z AUTO 31008G16KT 10SM FEW032 OVC041 M01/M06 A2987 RMK AO2 SLP132 T10061061 51021
KRHI 100153Z AUTO 30011G19KT 10SM OVC035 00/M07 A2986 RMK AO2 SLP128 T00001072
KRHI 100053Z AUTO 31010G18KT 10SM BKN040 BKN048 00/M07 A2983 RMK AO2 SLP119 T00001067
KRHI 092353Z AUTO 31010G23KT 10SM FEW031 FEW041 BKN080 01/M08 A2980 RMK AO2 SLP111 T00061078 10033 20006 53024
KRHI 092253Z AUTO 32010G24KT 10SM BKN050 OVC060 01/M08 A2978 RMK AO2 PK WND 32028/2200 SLP102 T00111083
KRHI 092153Z AUTO 30011G21KT 270V330 10SM BKN060 02/M10 A2975 RMK AO2 PK WND 29027/2100 SLP090 T00221100
KRHI 092053Z AUTO 30012G23KT 10SM SCT050 BKN060 03/M10 A2973 RMK AO2 PK WND 33026/1955 SLP084 T00331100 51015
KRHI 091953Z AUTO 33007G22KT 300V010 10SM BKN060 03/M10 A2972 RMK AO2 PK WND 31026/1859 SLP078 T00331100
KRHI 091853Z AUTO 30018G28KT 10SM BKN060 03/M12 A2969 RMK AO2 PK WND 33029/1831 SLP071 T00331122
KRHI 091753Z AUTO 33014G25KT 10SM BKN055 03/M11 A2968 RMK AO2 PK WND 29031/1740 SLP065 T00331106 10033 21017 51011
KRHI 091653Z AUTO 33012G22KT 10SM BKN045 02/M10 A2967 RMK AO2 PK WND 30028/1633 SLP062 T00171100
KRHI 091553Z AUTO 30007G20KT 10SM BKN035 01/M08 A2966 RMK AO2 SLP062 T00111078
KRHI 091453Z AUTO 34011G21KT 10SM SCT036 01/M08 A2965 RMK AO2 SLP054 T00111078 58000
KRHI 091353Z AUTO 30006G19KT 10SM FEW027 FEW075 01/M07 A2966 RMK AO2 SLP056 T00061072
KRHI 091253Z AUTO 31011G20KT 10SM OVC080 M01/M06 A2966 RMK AO2 SLP057 T10111061
KRHI 091153Z AUTO 28010KT 10SM OVC080 M02/M07 A2965 RMK AO2 SLP055 60000 T10171067 10028 21022 55000
KRHI 091053Z AUTO 29010G17KT 10SM CLR M02/M07 A2965 RMK AO2 SLP052 T10221067
KRHI 090953Z AUTO 29010G21KT 10SM CLR M02/M07 A2965 RMK AO2 SLP050 T10171072
KRHI 090853Z AUTO 29010G18KT 10SM CLR M01/M07 A2965 RMK AO2 SLP051 60000 T10111072 53001
KRHI 090801Z AUTO 29012G20KT 10SM SCT028 BKN037 00/M06 A2965 RMK AO2 T00001061
KRHI 090753Z AUTO 29014G21KT 10SM BKN028 OVC037 01/M06 A2965 RMK AO2 SLP049 T00061056